Time;durP1;ratioP1;P1;durP2;ratioP2;P2;SDS_P1;SDS_P2;PMS_P1;PMS_P2;Temp;Humidity;BMP_temperature;BMP_pressure;BME280_temperature;BME280_humidity;BME280_pressure;Samples;Min_cycle;Max_cycle;Signal;HPM_P1;HPM_P2
2023/03/04 00:01:24;;;;;;;62.37;33.50;;;5.80;97.90;;;;;;4969557;28;20460;-84
2023/03/04 00:03:54;;;;;;;57.50;31.13;;;6.00;97.60;;;;;;4958033;28;20492;-83
2023/03/04 00:06:21;;;;;;;58.37;30.47;;;6.00;97.20;;;;;;4973158;28;20507;-82
2023/03/04 00:08:57;;;;;;;61.30;34.23;;;5.90;97.20;;;;;;4971485;28;20853;-84
2023/03/04 00:11:40;;;;;;;61.67;31.90;;;5.90;97.20;;;;;;4964456;28;20457;-84
2023/03/04 00:14:07;;;;;;;58.63;29.57;;;5.90;97.20;;;;;;4962651;28;20955;-82
2023/03/04 00:16:43;;;;;;;57.33;28.57;;;5.80;97.40;;;;;;4963637;28;20485;-83
2023/03/04 00:19:16;;;;;;;64.50;31.47;;;6.00;97.50;;;;;;4964326;28;20830;-83
2023/03/04 00:21:48;;;;;;;49.80;27.70;;;6.20;97.20;;;;;;4977137;28;20536;-82
2023/03/04 00:24:21;;;;;;;42.70;23.83;;;6.10;97.20;;;;;;4966109;28;20571;-83
2023/03/04 00:26:48;;;;;;;41.83;24.47;;;5.90;97.40;;;;;;4959536;28;20469;-83
2023/03/04 00:29:21;;;;;;;51.97;26.40;;;5.90;97.60;;;;;;4961391;28;20449;-82
2023/03/04 00:31:52;;;;;;;44.33;25.37;;;5.80;97.90;;;;;;4979769;28;20486;-82
2023/03/04 00:34:19;;;;;;;44.23;24.60;;;5.70;98.20;;;;;;4966944;28;20457;-82
2023/03/04 00:36:48;;;;;;;42.27;22.97;;;5.70;98.50;;;;;;4963021;28;20481;-83
2023/03/04 00:39:15;;;;;;;41.60;23.90;;;5.60;98.70;;;;;;4965646;28;20955;-84
2023/03/04 00:41:47;;;;;;;42.40;24.80;;;5.70;98.80;;;;;;4965148;28;20536;-82
2023/03/04 00:44:18;;;;;;;42.57;22.50;;;5.70;99.00;;;;;;4968240;28;20497;-82
2023/03/04 00:46:51;;;;;;;39.80;23.90;;;5.70;99.10;;;;;;4973414;28;20491;-84
2023/03/04 00:49:21;;;;;;;36.53;20.93;;;5.80;99.10;;;;;;4958728;28;20468;-82
2023/03/04 00:51:57;;;;;;;35.67;19.80;;;5.80;99.00;;;;;;4963875;28;20485;-82
2023/03/04 00:54:24;;;;;;;33.70;20.50;;;5.90;99.00;;;;;;4965403;28;20445;-83
2023/03/04 00:56:55;;;;;;;39.20;21.23;;;5.80;98.90;;;;;;4964949;28;20485;-82
2023/03/04 00:59:25;;;;;;;40.80;20.37;;;5.80;98.90;;;;;;4957638;28;20512;-81
2023/03/04 01:01:55;;;;;;;34.10;20.30;;;5.80;98.90;;;;;;4962951;28;20544;-81
2023/03/04 01:04:27;;;;;;;36.93;20.83;;;5.80;99.00;;;;;;4975045;28;21069;-83
2023/03/04 01:06:54;;;;;;;34.90;19.30;;;5.80;99.10;;;;;;4960267;28;20573;-84
2023/03/04 01:09:20;;;;;;;32.07;17.83;;;5.80;99.10;;;;;;4964090;28;20464;-83
2023/03/04 01:11:48;;;;;;;29.17;17.73;;;5.80;99.20;;;;;;4963736;28;20460;-82
2023/03/04 01:14:15;;;;;;;31.33;18.33;;;5.80;99.10;;;;;;4962811;28;20479;-83
2023/03/04 01:16:44;;;;;;;27.40;16.13;;;5.80;99.10;;;;;;4967169;28;20473;-81
2023/03/04 01:19:15;;;;;;;29.33;16.13;;;5.80;99.10;;;;;;4972243;28;20470;-83
2023/03/04 01:21:45;;;;;;;23.33;14.70;;;5.90;99.10;;;;;;4973353;28;20462;-81
2023/03/04 01:24:15;;;;;;;25.77;14.60;;;5.80;99.10;;;;;;4974182;28;20484;-81
2023/03/04 01:26:43;;;;;;;26.27;14.10;;;5.80;99.00;;;;;;4975921;28;20517;-82
2023/03/04 01:29:16;;;;;;;18.60;12.07;;;5.80;99.00;;;;;;4973106;28;20452;-83
2023/03/04 01:31:45;;;;;;;21.50;13.37;;;5.80;99.10;;;;;;4962481;28;20517;-81
2023/03/04 01:34:19;;;;;;;20.40;12.47;;;5.90;99.10;;;;;;4946969;28;20455;-81
2023/03/04 01:36:46;;;;;;;22.43;12.17;;;5.80;98.90;;;;;;4957113;28;20471;-82
2023/03/04 01:39:16;;;;;;;15.00;10.20;;;5.80;98.80;;;;;;4962714;28;20457;-82
2023/03/04 01:41:48;;;;;;;22.10;12.40;;;5.90;98.70;;;;;;4957426;28;20456;-81
2023/03/04 01:44:17;;;;;;;19.00;10.73;;;5.90;98.70;;;;;;4958719;28;20483;-81
2023/03/04 01:46:50;;;;;;;20.40;10.40;;;5.90;98.60;;;;;;4956984;28;20485;-82
2023/03/04 01:49:17;;;;;;;16.50;9.80;;;5.90;98.90;;;;;;4959810;28;20460;-84
2023/03/04 01:51:54;;;;;;;14.87;10.47;;;5.90;98.50;;;;;;4959718;28;20464;-82
2023/03/04 01:54:22;;;;;;;13.67;9.73;;;5.80;98.50;;;;;;4961741;28;20460;-84
2023/03/04 01:56:59;;;;;;;16.67;9.30;;;5.90;98.50;;;;;;4951653;28;20481;-82
2023/03/04 01:59:30;;;;;;;15.23;10.03;;;5.80;98.40;;;;;;4966761;28;20487;-83
2023/03/04 02:02:01;;;;;;;18.20;10.87;;;5.80;98.40;;;;;;4980339;28;20460;-83
2023/03/04 02:04:34;;;;;;;14.60;9.20;;;6.00;98.40;;;;;;4960502;28;20483;-83
2023/03/04 02:07:02;;;;;;;15.60;9.47;;;5.90;98.30;;;;;;4959856;28;20552;-83
2023/03/04 02:09:39;;;;;;;14.23;9.20;;;5.90;98.10;;;;;;4968883;28;20468;-82
2023/03/04 02:12:06;;;;;;;13.53;8.83;;;5.90;98.00;;;;;;4960158;28;20467;-83
2023/03/04 02:14:33;;;;;;;17.77;8.73;;;5.90;98.00;;;;;;4959635;28;20528;-85
2023/03/04 02:16:59;;;;;;;18.90;9.23;;;6.00;98.00;;;;;;4975962;28;20483;-83
2023/03/04 02:19:52;;;;;;;18.37;8.70;;;5.90;97.90;;;;;;4974252;28;20465;-82
2023/03/04 02:22:19;;;;;;;16.40;8.83;;;5.90;97.90;;;;;;4976174;28;20444;-82
2023/03/04 02:24:52;;;;;;;13.53;7.63;;;5.90;97.90;;;;;;4970177;28;20559;-81
2023/03/04 02:27:19;;;;;;;17.73;9.40;;;5.90;97.90;;;;;;4965034;28;20477;-82
2023/03/04 02:29:47;;;;;;;13.73;8.23;;;5.90;98.00;;;;;;4964592;28;20491;-82
2023/03/04 02:32:15;;;;;;;12.07;8.47;;;5.90;97.90;;;;;;4963507;28;20467;-83
2023/03/04 02:34:47;;;;;;;13.97;7.80;;;5.90;97.80;;;;;;4965020;28;20459;-84
2023/03/04 02:37:16;;;;;;;13.97;7.77;;;5.90;97.90;;;;;;4962601;28;20476;-83
2023/03/04 02:39:46;;;;;;;17.07;9.90;;;6.00;97.80;;;;;;4965190;28;20542;-84
2023/03/04 02:42:12;;;;;;;14.23;7.03;;;6.00;97.80;;;;;;4960277;28;20453;-83
2023/03/04 02:44:45;;;;;;;12.23;7.07;;;6.00;98.00;;;;;;4963738;28;20488;-84
2023/03/04 02:47:16;;;;;;;14.53;7.47;;;6.00;97.70;;;;;;4953483;28;20532;-82
2023/03/04 02:49:43;;;;;;;11.77;7.93;;;6.10;97.70;;;;;;4961626;28;20525;-82
2023/03/04 02:52:17;;;;;;;16.40;9.27;;;6.00;97.60;;;;;;4964496;28;20944;-82
2023/03/04 02:54:44;;;;;;;11.43;7.60;;;6.10;97.60;;;;;;4969872;28;20949;-81
2023/03/04 02:57:13;;;;;;;11.83;7.37;;;6.10;97.60;;;;;;4965414;28;20961;-81
2023/03/04 02:59:41;;;;;;;18.60;6.70;;;6.10;97.60;;;;;;4963698;28;20543;-81
2023/03/04 03:02:08;;;;;;;15.23;7.00;;;6.10;97.60;;;;;;4960350;28;20464;-83
2023/03/04 03:04:37;;;;;;;13.20;7.07;;;6.10;97.40;;;;;;4958604;28;20476;-84
2023/03/04 03:07:04;;;;;;;13.77;6.83;;;6.10;97.40;;;;;;4963979;28;20494;-83
2023/03/04 03:09:31;;;;;;;14.43;7.03;;;6.10;97.40;;;;;;4973639;28;20444;-83
2023/03/04 03:11:57;;;;;;;17.50;6.97;;;6.10;97.40;;;;;;4956317;28;20457;-83
2023/03/04 03:14:24;;;;;;;9.23;5.90;;;6.10;97.40;;;;;;4966329;28;20488;-82
2023/03/04 03:16:50;;;;;;;13.13;6.83;;;6.10;97.30;;;;;;4967047;28;20480;-82
2023/03/04 03:19:17;;;;;;;11.00;5.77;;;6.20;97.40;;;;;;4975062;28;20451;-81
2023/03/04 03:21:44;;;;;;;11.93;6.00;;;6.10;97.40;;;;;;4972887;28;21029;-82
2023/03/04 03:24:11;;;;;;;13.00;7.07;;;6.10;97.40;;;;;;4973392;28;20481;-83
2023/03/04 03:26:38;;;;;;;11.17;6.40;;;6.10;97.40;;;;;;4974325;28;20473;-81
2023/03/04 03:29:05;;;;;;;16.27;6.83;;;6.20;97.50;;;;;;4989651;28;20454;-83
2023/03/04 03:31:32;;;;;;;11.17;6.20;;;6.20;97.40;;;;;;4987028;28;20474;-82
2023/03/04 03:33:59;;;;;;;10.07;5.90;;;6.20;97.40;;;;;;4982020;28;20460;-82
2023/03/04 03:36:25;;;;;;;13.07;6.23;;;6.20;97.40;;;;;;4978667;28;20468;-83
2023/03/04 03:38:52;;;;;;;15.97;5.73;;;6.10;97.40;;;;;;4969507;28;20465;-82
2023/03/04 03:41:19;;;;;;;11.80;6.33;;;6.10;97.40;;;;;;4978798;28;20449;-82
2023/03/04 03:43:49;;;;;;;12.70;6.50;;;6.20;97.50;;;;;;4978206;28;20483;-82
2023/03/04 03:46:16;;;;;;;10.77;5.03;;;6.20;97.60;;;;;;4993061;28;20481;-82
2023/03/04 03:48:45;;;;;;;16.70;6.27;;;6.20;97.60;;;;;;4989309;28;20524;-83
2023/03/04 03:51:24;;;;;;;19.90;8.60;;;6.20;97.60;;;;;;4964271;28;20457;-82
2023/03/04 03:53:56;;;;;;;11.80;5.30;;;6.20;97.60;;;;;;4959162;28;20491;-83
2023/03/04 03:56:28;;;;;;;27.63;19.03;;;6.10;97.60;;;;;;4973534;28;20491;-83
2023/03/04 03:59:02;;;;;;;12.13;5.63;;;6.20;97.60;;;;;;4961403;28;20464;-82
2023/03/04 04:01:37;;;;;;;15.00;6.47;;;6.20;97.70;;;;;;4968983;28;20455;-83
2023/03/04 04:04:10;;;;;;;17.47;6.70;;;6.30;97.70;;;;;;4976159;28;20500;-83
2023/03/04 04:06:39;;;;;;;16.93;5.87;;;6.30;97.70;;;;;;4977513;28;20528;-83
2023/03/04 04:09:06;;;;;;;12.80;5.70;;;6.20;97.50;;;;;;4973185;28;20464;-84
2023/03/04 04:11:40;;;;;;;13.00;6.17;;;6.20;97.50;;;;;;4958601;28;20471;-83
2023/03/04 04:14:14;;;;;;;9.40;5.13;;;6.20;97.60;;;;;;4980726;28;21024;-83
2023/03/04 04:16:46;;;;;;;12.40;6.00;;;6.20;97.60;;;;;;4968053;28;20472;-83
2023/03/04 04:19:18;;;;;;;8.73;5.10;;;6.20;97.70;;;;;;4961516;28;20451;-82
2023/03/04 04:21:48;;;;;;;9.70;5.03;;;6.30;97.70;;;;;;4964313;28;20493;-83
2023/03/04 04:24:18;;;;;;;14.37;6.33;;;6.30;97.70;;;;;;4962990;28;20552;-83
2023/03/04 04:26:50;;;;;;;13.63;7.47;;;6.30;97.70;;;;;;4963010;28;20572;-83
2023/03/04 04:29:18;;;;;;;16.77;7.20;;;6.40;97.70;;;;;;4962460;28;20972;-85
2023/03/04 04:32:18;;;;;;;;;;;;;;;;;;;;;
2023/03/04 04:35:18;;;;;;;11.33;4.90;;;6.40;97.50;;;;;;4959560;28;20449;-83
2023/03/04 04:37:54;;;;;;;18.00;6.70;;;6.40;97.70;;;;;;4959937;28;20464;-82
2023/03/04 04:40:50;;;;;;;14.67;6.37;;;6.30;97.40;;;;;;4970796;28;20464;-82
2023/03/04 04:43:34;;;;;;;17.17;5.40;;;6.40;97.50;;;;;;4961820;28;20451;-82
2023/03/04 04:46:16;;;;;;;12.50;6.70;;;6.40;97.50;;;;;;4969893;28;20477;-81
2023/03/04 04:48:55;;;;;;;19.57;6.37;;;6.40;97.40;;;;;;4960562;28;20480;-84
2023/03/04 04:51:25;;;;;;;18.90;7.50;;;6.40;97.40;;;;;;4970573;28;20532;-82
2023/03/04 04:54:06;;;;;;;11.20;6.70;;;6.40;97.40;;;;;;4956946;28;20453;-83
2023/03/04 04:56:40;;;;;;;16.17;7.27;;;6.40;97.30;;;;;;4961727;28;20484;-82
2023/03/04 04:59:13;;;;;;;13.87;7.80;;;6.40;97.30;;;;;;4979059;28;20461;-82
2023/03/04 05:01:54;;;;;;;22.13;9.60;;;6.40;97.30;;;;;;4961634;28;20519;-84
2023/03/04 05:04:34;;;;;;;18.93;10.13;;;6.50;97.40;;;;;;4977023;28;20518;-85
2023/03/04 05:10:26;;;;;;;;;;;;;;;;;;;;;
2023/03/04 05:13:22;;;;;;;25.60;13.10;;;6.60;97.20;;;;;;4964333;28;20452;-83
2023/03/04 05:15:58;;;;;;;30.20;15.30;;;6.50;97.00;;;;;;4958473;28;20583;-83
2023/03/04 05:18:39;;;;;;;28.83;14.60;;;6.70;96.90;;;;;;4962353;28;20461;-83
2023/03/04 05:21:28;;;;;;;30.73;15.20;;;6.70;96.70;;;;;;4976183;28;20463;-84
2023/03/04 05:23:59;;;;;;;27.37;15.23;;;6.70;96.80;;;;;;4977828;28;20571;-84
2023/03/04 05:26:39;;;;;;;32.60;16.53;;;6.70;96.30;;;;;;4967634;28;20488;-83
2023/03/04 05:32:25;;;;;;;27.63;14.87;;;6.70;96.40;;;;;;4965734;28;20470;-83
2023/03/04 05:35:04;;;;;;;33.53;14.50;;;6.60;96.40;;;;;;4967930;28;20544;-83
2023/03/04 05:37:44;;;;;;;31.33;14.50;;;6.60;96.50;;;;;;4962504;28;20548;-81
2023/03/04 05:40:31;;;;;;;26.67;12.23;;;6.60;96.60;;;;;;4951452;28;20544;-82
2023/03/04 05:43:00;;;;;;;26.03;12.20;;;6.60;96.60;;;;;;4958850;28;20456;-81
2023/03/04 05:45:31;;;;;;;23.30;10.40;;;6.60;96.60;;;;;;4968381;28;20464;-83
2023/03/04 05:47:59;;;;;;;21.20;10.53;;;6.70;96.80;;;;;;4969222;28;20525;-83
2023/03/04 05:50:48;;;;;;;19.30;10.40;;;6.70;96.70;;;;;;4958656;28;20477;-84
2023/03/04 05:53:32;;;;;;;14.77;7.60;;;6.70;96.70;;;;;;4954139;28;20470;-83
2023/03/04 05:56:23;;;;;;;15.67;7.90;;;6.60;96.70;;;;;;4958718;28;20858;-83
2023/03/04 05:59:04;;;;;;;15.40;5.97;;;6.60;96.70;;;;;;4969049;28;20460;-83
2023/03/04 06:01:44;;;;;;;13.30;6.07;;;6.50;96.70;;;;;;4960257;28;21030;-83
2023/03/04 06:04:19;;;;;;;13.53;7.03;;;6.50;96.70;;;;;;4968448;28;20520;-83
2023/03/04 06:07:16;;;;;;;13.80;5.30;;;6.50;96.70;;;;;;4952048;28;20504;-84
2023/03/04 06:10:23;;;;;;;16.83;6.40;;;6.50;96.90;;;;;;4973699;28;20536;-83
2023/03/04 06:13:16;;;;;;;13.87;6.20;;;6.50;96.90;;;;;;4955928;28;20457;-83
2023/03/04 06:15:58;;;;;;;15.70;5.90;;;6.50;97.00;;;;;;4958026;28;20522;-84
2023/03/04 06:18:45;;;;;;;16.60;6.40;;;6.50;97.00;;;;;;4970325;28;20731;-83
2023/03/04 06:21:19;;;;;;;18.33;5.43;;;6.50;97.10;;;;;;5132232;23;20557;-83
2023/03/04 06:23:53;;;;;;;10.40;4.60;;;6.60;97.10;;;;;;4976975;28;20460;-84
2023/03/04 06:26:23;;;;;;;10.27;5.37;;;6.60;97.10;;;;;;4980912;28;20499;-83
2023/03/04 06:29:02;;;;;;;12.60;4.97;;;6.60;97.00;;;;;;5006070;28;20470;-83
2023/03/04 06:31:49;;;;;;;9.00;4.70;;;6.60;97.10;;;;;;4990350;28;20464;-82
2023/03/04 06:34:21;;;;;;;13.00;4.00;;;6.60;97.20;;;;;;5075030;23;20524;-84
2023/03/04 06:36:51;;;;;;;9.63;3.77;;;6.60;97.20;;;;;;4957648;29;20527;-84
2023/03/04 06:39:31;;;;;;;;;;;;;;;;;;;;;
2023/03/04 06:42:10;;;;;;;7.80;3.73;;;6.50;97.40;;;;;;4951096;28;21035;-83
2023/03/04 06:44:42;;;;;;;12.87;3.80;;;6.60;97.50;;;;;;4923960;29;20485;-84
2023/03/04 06:47:35;;;;;;;7.40;3.80;;;6.60;97.50;;;;;;4942109;28;20467;-81
2023/03/04 06:50:16;;;;;;;13.17;4.37;;;6.50;97.50;;;;;;4952627;28;20465;-84
2023/03/04 06:53:19;;;;;;;5.53;4.00;;;6.60;97.50;;;;;;4962193;28;20443;-85
2023/03/04 06:55:49;;;;;;;7.07;4.27;;;6.60;97.50;;;;;;4950578;28;20477;-84
2023/03/04 06:58:30;;;;;;;6.00;3.93;;;6.60;97.50;;;;;;4952178;28;20492;-84
2023/03/04 07:01:23;;;;;;;9.80;3.53;;;6.60;97.50;;;;;;4949314;28;20461;-83
2023/03/04 07:04:01;;;;;;;7.20;3.80;;;6.60;97.50;;;;;;4935214;28;20510;-84
2023/03/04 07:06:32;;;;;;;6.10;3.50;;;6.60;97.50;;;;;;4957580;28;20483;-82
2023/03/04 07:09:18;;;;;;;6.33;3.33;;;6.60;97.50;;;;;;4939576;29;20464;-84
2023/03/04 07:11:50;;;;;;;8.13;3.07;;;6.60;97.50;;;;;;4952821;28;20495;-84
2023/03/04 07:14:23;;;;;;;8.40;3.40;;;6.60;97.60;;;;;;4945116;28;20465;-83
2023/03/04 07:17:06;;;;;;;6.93;3.30;;;6.60;97.60;;;;;;4948867;28;20484;-83
2023/03/04 07:19:33;;;;;;;7.77;3.00;;;6.60;97.80;;;;;;4961812;28;20492;-81
2023/03/04 07:22:04;;;;;;;10.13;3.10;;;6.50;97.80;;;;;;4945679;28;20544;-81
2023/03/04 07:24:41;;;;;;;6.83;3.00;;;6.60;97.90;;;;;;4945198;28;20488;-83
2023/03/04 07:27:28;;;;;;;6.63;2.60;;;6.60;98.10;;;;;;4965468;28;20530;-81
2023/03/04 07:30:25;;;;;;;10.57;2.90;;;6.70;97.90;;;;;;4964245;28;20461;-84
2023/03/04 07:33:02;;;;;;;9.77;2.43;;;6.70;97.80;;;;;;4964503;28;20477;-83
2023/03/04 07:36:02;;;;;;;9.27;2.70;;;6.80;97.80;;;;;;4954378;28;20549;-82
2023/03/04 07:38:29;;;;;;;11.30;3.20;;;6.70;97.70;;;;;;4980780;28;20511;-82
2023/03/04 07:41:09;;;;;;;9.33;3.00;;;6.90;97.70;;;;;;4971312;28;20458;-82
2023/03/04 07:43:46;;;;;;;6.23;4.50;;;6.80;97.40;;;;;;4956023;29;20457;-83
2023/03/04 07:46:20;;;;;;;5.40;3.00;;;6.80;97.50;;;;;;4956584;29;20476;-84
2023/03/04 07:48:57;;;;;;;10.90;4.70;;;6.80;97.50;;;;;;4957170;29;20470;-82
2023/03/04 07:51:45;;;;;;;8.07;3.40;;;6.80;97.50;;;;;;4978487;28;20519;-84
2023/03/04 07:54:19;;;;;;;9.60;4.30;;;6.80;97.50;;;;;;4958245;28;20476;-84
2023/03/04 07:57:14;;;;;;;9.40;3.43;;;7.00;97.60;;;;;;4966695;28;20464;-84
2023/03/04 07:59:49;;;;;;;8.37;3.20;;;6.90;97.30;;;;;;4959834;29;20517;-80
2023/03/04 08:02:23;;;;;;;7.87;3.37;;;6.90;97.20;;;;;;4964219;28;20461;-82
2023/03/04 08:05:07;;;;;;;6.47;3.40;;;6.90;97.20;;;;;;4948778;29;20587;-81
2023/03/04 08:07:46;;;;;;;5.73;3.03;;;6.90;97.10;;;;;;5022172;23;20488;-83
2023/03/04 08:10:29;;;;;;;5.57;2.37;;;7.00;97.10;;;;;;4972192;28;20897;-82
2023/03/04 08:15:56;;;;;;;3.43;2.33;;;7.00;96.70;;;;;;4945203;29;20516;-83
2023/03/04 08:18:46;;;;;;;12.03;2.93;;;6.90;96.70;;;;;;4940827;29;20473;-82
2023/03/04 08:21:41;;;;;;;6.43;3.07;;;7.00;96.70;;;;;;4931503;29;20877;-84
2023/03/04 08:24:12;;;;;;;10.80;3.17;;;7.00;96.80;;;;;;4960369;28;20489;-83
2023/03/04 08:26:53;;;;;;;9.27;3.13;;;7.00;96.80;;;;;;5080061;23;20591;-83
2023/03/04 08:29:27;;;;;;;5.77;2.80;;;7.00;96.80;;;;;;4956307;29;20525;-84
2023/03/04 08:32:12;;;;;;;4.43;2.23;;;7.10;96.80;;;;;;4936911;29;20467;-83
2023/03/04 08:34:55;;;;;;;6.33;2.13;;;7.10;96.70;;;;;;4978933;28;20449;-83
2023/03/04 08:37:45;;;;;;;8.33;2.50;;;7.00;96.70;;;;;;4983316;23;20454;-83
2023/03/04 08:40:29;;;;;;;7.13;2.90;;;7.00;96.90;;;;;;4980026;28;20445;-85
2023/03/04 08:43:09;;;;;;;6.67;3.10;;;7.10;97.00;;;;;;4950849;28;20513;-82
2023/03/04 08:45:46;;;;;;;5.67;2.40;;;7.30;97.00;;;;;;4959180;28;21023;-83
2023/03/04 08:48:24;;;;;;;4.40;2.50;;;7.20;96.90;;;;;;4958377;28;20477;-82
2023/03/04 08:51:11;;;;;;;5.77;3.47;;;7.10;97.00;;;;;;4969241;28;20515;-83
2023/03/04 08:54:07;;;;;;;4.70;2.80;;;7.10;97.20;;;;;;4960568;28;20981;-83
2023/03/04 08:56:50;;;;;;;4.23;2.57;;;7.20;97.20;;;;;;4956768;28;21000;-83
2023/03/04 08:59:58;;;;;;;7.80;2.23;;;7.20;97.20;;;;;;4956436;28;20461;-83
2023/03/04 09:02:41;;;;;;;6.57;2.93;;;7.10;97.20;;;;;;4966806;28;21055;-83
2023/03/04 09:05:25;;;;;;;6.47;2.47;;;7.30;97.40;;;;;;4960054;28;20490;-82
2023/03/04 09:08:01;;;;;;;3.37;2.20;;;7.20;97.40;;;;;;4968598;28;20481;-82
2023/03/04 09:10:34;;;;;;;5.53;3.13;;;7.10;97.70;;;;;;4983192;28;20468;-84
2023/03/04 09:13:10;;;;;;;3.83;2.33;;;7.20;97.90;;;;;;4966627;28;20479;-83
2023/03/04 09:15:42;;;;;;;12.27;2.87;;;7.20;98.10;;;;;;4958189;28;20491;-82
2023/03/04 09:18:10;;;;;;;8.13;2.20;;;7.30;98.30;;;;;;4961650;28;20525;-83
2023/03/04 09:20:48;;;;;;;3.53;1.93;;;7.20;98.20;;;;;;4950511;28;20490;-84
2023/03/04 09:23:18;;;;;;;7.77;3.00;;;7.20;98.20;;;;;;4961010;28;20441;-82
2023/03/04 09:25:56;;;;;;;3.90;3.00;;;7.30;98.30;;;;;;4953979;28;20544;-83
2023/03/04 09:28:37;;;;;;;8.00;2.83;;;7.30;98.30;;;;;;4951281;28;20467;-84
2023/03/04 09:31:19;;;;;;;4.83;3.60;;;7.30;98.30;;;;;;4959521;28;20480;-83
2023/03/04 09:33:58;;;;;;;6.33;2.80;;;7.50;98.50;;;;;;4952955;28;20469;-83
2023/03/04 09:36:32;;;;;;;9.13;4.77;;;7.50;98.40;;;;;;4954313;28;20597;-83
2023/03/04 09:39:22;;;;;;;3.80;1.83;;;7.50;98.30;;;;;;4955438;28;20481;-84
2023/03/04 09:42:00;;;;;;;4.20;2.00;;;7.60;98.40;;;;;;4948590;28;20460;-82
2023/03/04 09:44:35;;;;;;;4.20;1.60;;;7.60;98.20;;;;;;4948164;28;20460;-84
2023/03/04 09:47:27;;;;;;;4.83;1.80;;;7.80;98.40;;;;;;4957077;28;20476;-85
2023/03/04 09:49:59;;;;;;;3.10;1.93;;;7.90;98.10;;;;;;4959800;28;20453;-83
2023/03/04 09:53:02;;;;;;;3.07;1.60;;;7.80;97.80;;;;;;4954583;28;20489;-84
2023/03/04 09:55:46;;;;;;;8.83;1.93;;;8.00;97.90;;;;;;4932159;28;20882;-84
2023/03/04 09:58:59;;;;;;;9.17;2.63;;;8.00;97.70;;;;;;4954026;28;20705;-84
2023/03/04 10:02:01;;;;;;;8.17;2.40;;;8.00;97.50;;;;;;4955416;28;20503;-83
2023/03/04 10:04:49;;;;;;;3.93;1.97;;;8.20;97.40;;;;;;4941490;28;20487;-83
2023/03/04 10:07:28;;;;;;;2.30;1.70;;;8.10;97.10;;;;;;4976928;28;20486;-84
2023/03/04 10:10:09;;;;;;;6.73;2.53;;;8.10;97.10;;;;;;4973718;28;20449;-84
2023/03/04 10:12:45;;;;;;;1.90;1.73;;;8.10;97.00;;;;;;4964269;28;20458;-83
2023/03/04 10:15:42;;;;;;;3.20;2.00;;;8.10;96.90;;;;;;4962546;28;20473;-84
2023/03/04 10:18:29;;;;;;;2.30;2.00;;;7.90;97.10;;;;;;4951908;28;20594;-85
2023/03/04 10:21:40;;;;;;;2.60;2.40;;;7.90;97.50;;;;;;4966786;28;20448;-85
2023/03/04 10:24:21;;;;;;;3.60;2.57;;;7.90;97.30;;;;;;4955921;28;20445;-84
2023/03/04 10:27:14;;;;;;;4.43;2.30;;;8.00;97.20;;;;;;4962146;28;20480;-84
2023/03/04 10:29:44;;;;;;;3.70;2.00;;;8.10;97.20;;;;;;4960994;28;20559;-84
2023/03/04 10:32:20;;;;;;;8.40;3.00;;;8.40;96.90;;;;;;4949656;28;20474;-84
2023/03/04 10:34:56;;;;;;;4.60;2.70;;;8.20;96.40;;;;;;4951656;28;20466;-83
2023/03/04 10:37:23;;;;;;;3.70;2.10;;;8.10;96.50;;;;;;4950401;28;20591;-84
2023/03/04 10:40:00;;;;;;;5.80;1.90;;;8.30;97.10;;;;;;4964525;28;20456;-83
2023/03/04 10:42:39;;;;;;;3.63;1.63;;;8.30;97.40;;;;;;4945297;29;20449;-84
2023/03/04 10:45:20;;;;;;;2.37;1.70;;;8.50;97.80;;;;;;4938630;28;20571;-82
2023/03/04 10:47:55;;;;;;;3.87;2.50;;;8.50;98.00;;;;;;4963963;28;20500;-83
2023/03/04 10:50:30;;;;;;;2.57;1.50;;;8.50;98.10;;;;;;4948771;28;20985;-84
2023/03/04 10:53:37;;;;;;;3.57;1.70;;;8.60;98.10;;;;;;4957068;28;20456;-85
2023/03/04 10:56:36;;;;;;;2.87;1.90;;;8.50;98.20;;;;;;4954508;28;20477;-85
2023/03/04 10:59:39;;;;;;;3.33;3.00;;;8.70;98.40;;;;;;4956919;28;20453;-84
2023/03/04 11:02:16;;;;;;;7.83;2.10;;;8.70;97.50;;;;;;4963748;28;20547;-86
2023/03/04 11:05:08;;;;;;;3.33;2.13;;;8.50;97.60;;;;;;4948974;28;20471;-84
2023/03/04 11:07:45;;;;;;;5.63;2.50;;;8.50;98.10;;;;;;4955809;28;20446;-84
2023/03/04 11:10:43;;;;;;;2.60;1.50;;;8.50;98.20;;;;;;4954072;28;20464;-81
2023/03/04 11:13:24;;;;;;;6.00;3.97;;;8.30;98.20;;;;;;4941585;28;20470;-83
2023/03/04 11:16:04;;;;;;;5.10;2.37;;;8.20;98.70;;;;;;4950491;28;20472;-82
2023/03/04 11:18:52;;;;;;;3.87;2.37;;;8.20;99.40;;;;;;4953301;28;20465;-85
2023/03/04 11:21:39;;;;;;;6.27;2.53;;;8.20;99.90;;;;;;4961157;28;20479;-83
2023/03/04 11:24:20;;;;;;;3.77;2.13;;;8.30;99.90;;;;;;4957190;28;20440;-83
2023/03/04 11:27:29;;;;;;;5.27;2.47;;;8.50;99.90;;;;;;4953732;28;20505;-82
2023/03/04 11:30:42;;;;;;;2.13;1.90;;;8.80;99.40;;;;;;4956905;28;20492;-83
2023/03/04 11:33:35;;;;;;;6.37;2.57;;;9.10;98.80;;;;;;4963812;28;20488;-82
2023/03/04 11:37:05;;;;;;;2.00;1.73;;;9.00;97.60;;;;;;4977928;28;20472;-83
2023/03/04 11:39:46;;;;;;;3.70;1.90;;;8.80;97.00;;;;;;4931578;28;20520;-84
2023/03/04 11:42:43;;;;;;;5.80;2.23;;;8.80;97.20;;;;;;4955418;28;20473;-84
2023/03/04 11:45:54;;;;;;;3.80;2.23;;;8.80;97.20;;;;;;4955342;28;20481;-84
2023/03/04 11:49:15;;;;;;;7.00;2.37;;;8.70;97.20;;;;;;4944859;28;20454;-84
2023/03/04 11:52:09;;;;;;;3.30;2.33;;;8.60;97.30;;;;;;4960970;28;20462;-81
2023/03/04 11:55:12;;;;;;;4.93;2.40;;;8.60;97.50;;;;;;4966242;28;20461;-84
2023/03/04 11:58:30;;;;;;;4.03;2.00;;;8.50;97.50;;;;;;4964428;28;20484;-83
2023/03/04 12:01:09;;;;;;;5.33;2.17;;;8.60;97.60;;;;;;4944178;28;20464;-83
2023/03/04 12:04:02;;;;;;;4.57;2.10;;;8.50;97.50;;;;;;4946723;28;20553;-84
2023/03/04 12:07:11;;;;;;;5.00;1.90;;;8.50;97.50;;;;;;4964468;28;20485;-84
2023/03/04 12:09:58;;;;;;;3.53;1.60;;;8.40;97.50;;;;;;4994842;23;20464;-82
2023/03/04 12:12:48;;;;;;;2.13;1.70;;;8.40;97.70;;;;;;5190682;23;20484;-81
2023/03/04 12:15:45;;;;;;;;;;;;;;;;;;;;;
2023/03/04 12:18:52;;;;;;;4.97;1.57;;;8.40;97.80;;;;;;4972792;28;20549;-83
2023/03/04 12:22:08;;;;;;;8.23;1.80;;;8.40;97.90;;;;;;4968874;28;20489;-81
2023/03/04 12:25:10;;;;;;;4.87;2.13;;;8.40;97.80;;;;;;4948749;29;20457;-83
2023/03/04 12:28:08;;;;;;;2.40;1.70;;;8.50;97.80;;;;;;4942308;29;20456;-84
2023/03/04 12:30:47;;;;;;;3.40;1.93;;;8.60;97.60;;;;;;4935717;29;20496;-82
2023/03/04 12:33:49;;;;;;;10.83;3.67;;;8.70;97.50;;;;;;4950640;29;20449;-81
2023/03/04 12:36:33;;;;;;;2.90;1.70;;;8.80;97.10;;;;;;4971374;28;20457;-82
2023/03/04 12:39:41;;;;;;;2.57;1.60;;;9.00;96.90;;;;;;5329414;23;20443;-81
2023/03/04 12:42:57;;;;;;;4.30;1.80;;;9.20;96.30;;;;;;4981750;28;20524;-82
2023/03/04 12:45:32;;;;;;;3.50;1.80;;;9.00;95.80;;;;;;4991465;28;20443;-82
2023/03/04 12:48:28;;;;;;;6.40;2.33;;;8.90;95.80;;;;;;4984886;28;20519;-83
2023/03/04 12:53:42;;;;;;;2.43;1.73;;;8.80;96.00;;;;;;5174649;23;20492;-83
2023/03/04 12:56:23;;;;;;;2.23;1.50;;;8.90;96.10;;;;;;4959775;28;20485;-81
2023/03/04 12:59:25;;;;;;;2.40;1.70;;;8.80;96.00;;;;;;4963505;28;20459;-83
2023/03/04 13:02:22;;;;;;;4.03;1.60;;;8.90;96.00;;;;;;4964154;28;20453;-84
2023/03/04 13:05:01;;;;;;;4.23;1.70;;;9.00;96.10;;;;;;4962196;28;20548;-84
2023/03/04 13:07:53;;;;;;;5.40;1.50;;;8.90;96.10;;;;;;4963244;28;20487;-84
2023/03/04 13:10:25;;;;;;;2.20;1.30;;;9.00;96.20;;;;;;4947353;28;20998;-83
2023/03/04 13:12:57;;;;;;;1.83;1.73;;;9.00;96.10;;;;;;4986239;28;20492;-83
2023/03/04 13:15:31;;;;;;;4.40;1.20;;;9.00;95.90;;;;;;4964063;28;20456;-84
2023/03/04 13:18:31;;;;;;;3.93;1.40;;;9.00;96.00;;;;;;4961016;28;20456;-83
2023/03/04 13:21:30;;;;;;;3.40;1.33;;;9.20;95.90;;;;;;4944172;29;20498;-84
2023/03/04 13:24:20;;;;;;;3.07;1.57;;;9.10;95.60;;;;;;4964088;28;20545;-84
2023/03/04 13:26:50;;;;;;;2.27;1.63;;;9.10;95.90;;;;;;4965256;28;20497;-83
2023/03/04 13:29:25;;;;;;;2.13;1.13;;;9.10;96.10;;;;;;4963673;28;20504;-82
2023/03/04 13:32:03;;;;;;;1.50;1.40;;;9.10;96.10;;;;;;4962787;28;20461;-82
2023/03/04 13:34:47;;;;;;;3.93;1.53;;;9.10;96.10;;;;;;4953028;28;20516;-81
2023/03/04 13:37:36;;;;;;;5.00;1.60;;;9.10;96.00;;;;;;4945508;29;20480;-83
2023/03/04 13:40:34;;;;;;;1.73;1.63;;;9.20;96.40;;;;;;4962697;28;20473;-84
2023/03/04 13:43:27;;;;;;;5.57;1.90;;;9.20;95.90;;;;;;4945873;29;20508;-82
2023/03/04 13:45:56;;;;;;;3.10;1.60;;;9.20;96.00;;;;;;4960460;28;20505;-83
2023/03/04 13:48:31;;;;;;;1.47;1.10;;;9.20;95.80;;;;;;4945429;29;20479;-81
2023/03/04 13:50:59;;;;;;;2.57;1.50;;;9.30;95.80;;;;;;4961511;28;20519;-80
2023/03/04 13:53:38;;;;;;;1.23;1.10;;;9.30;95.60;;;;;;4959550;28;20458;-83
2023/03/04 13:56:31;;;;;;;4.00;1.53;;;9.30;95.60;;;;;;4942815;28;20867;-82
2023/03/04 13:59:07;;;;;;;2.63;1.70;;;9.40;95.70;;;;;;4944498;29;20453;-83
2023/03/04 14:01:38;;;;;;;1.60;1.37;;;9.30;95.70;;;;;;4957433;28;20448;-82
2023/03/04 14:04:28;;;;;;;3.30;1.50;;;9.20;95.90;;;;;;4959896;28;20468;-83
2023/03/04 14:06:58;;;;;;;2.50;1.20;;;9.00;96.30;;;;;;4954873;28;20600;-83
2023/03/04 14:12:24;;;;;;;2.07;1.30;;;9.00;96.70;;;;;;4060609;23;20515;-82
2023/03/04 14:14:55;;;;;;;1.13;1.00;;;9.10;96.90;;;;;;4956688;28;20467;-85